Time;durP1;ratioP1;P1;durP2;ratioP2;P2;SDS_P1;SDS_P2;PMS_P1;PMS_P2;Temp;Humidity;BMP_temperature;BMP_pressure;BME280_temperature;BME280_humidity;BME280_pressure;Samples;Min_cycle;Max_cycle;Signal;HPM_P1;HPM_P2
2024/01/29 00:02:15;;;;;;;;;;;5.70;99.90;;;;;;5020795;28;20003;-62
2024/01/29 00:04:40;;;;;;;;;;;5.60;99.90;;;;;;5040731;28;19920;-64
2024/01/29 00:07:06;;;;;;;;;;;5.70;99.90;;;;;;5036973;28;20398;-63
2024/01/29 00:09:32;;;;;;;;;;;5.60;99.90;;;;;;5023617;28;20011;-64
2024/01/29 00:11:57;;;;;;;;;;;5.60;99.90;;;;;;5041630;28;19921;-60
2024/01/29 00:14:23;;;;;;;;;;;5.60;99.90;;;;;;5041351;28;19917;-64
2024/01/29 00:16:48;;;;;;;;;;;5.50;99.90;;;;;;5042836;28;19933;-63
2024/01/29 00:19:14;;;;;;;;;;;5.60;99.90;;;;;;5023545;28;19929;-64
2024/01/29 00:21:39;;;;;;;;;;;5.50;99.90;;;;;;5048252;28;19949;-64
2024/01/29 00:24:05;;;;;;;;;;;5.50;99.90;;;;;;5040068;28;20337;-64
2024/01/29 00:26:31;;;;;;;;;;;5.50;99.90;;;;;;5047989;28;20337;-62
2024/01/29 00:28:56;;;;;;;;;;;5.50;99.90;;;;;;5046239;28;20002;-62
2024/01/29 00:31:22;;;;;;;;;;;5.30;99.90;;;;;;5038889;28;19960;-62
2024/01/29 00:33:48;;;;;;;;;;;5.40;99.90;;;;;;5043639;28;20011;-63
2024/01/29 00:36:14;;;;;;;;;;;5.40;99.90;;;;;;5039222;28;20483;-61
2024/01/29 00:38:40;;;;;;;;;;;5.40;99.90;;;;;;5034851;28;20379;-61
2024/01/29 00:41:05;;;;;;;;;;;5.30;99.90;;;;;;5039922;28;20023;-63
2024/01/29 00:43:32;;;;;;;;;;;5.30;99.90;;;;;;5041397;28;19931;-60
2024/01/29 00:45:57;;;;;;;;;;;5.20;99.90;;;;;;5043325;28;19924;-63
2024/01/29 00:48:24;;;;;;;;;;;5.20;99.90;;;;;;5042798;28;20466;-60
2024/01/29 00:50:50;;;;;;;;;;;5.20;99.90;;;;;;5039505;28;20044;-63
2024/01/29 00:53:16;;;;;;;;;;;5.20;99.90;;;;;;5039301;28;19924;-62
2024/01/29 00:55:46;;;;;;;;;;;5.10;99.90;;;;;;5037911;28;19979;-63
2024/01/29 00:58:12;;;;;;;;;;;5.20;99.90;;;;;;5039395;28;19925;-64
2024/01/29 01:00:44;;;;;;;;;;;5.10;99.90;;;;;;5043574;28;20403;-62
2024/01/29 01:03:10;;;;;;;;;;;5.10;99.90;;;;;;5036688;28;20458;-64
2024/01/29 01:05:36;;;;;;;;;;;5.10;99.90;;;;;;5042480;28;19966;-63
2024/01/29 01:08:01;;;;;;;;;;;5.10;99.90;;;;;;5040950;28;19916;-62
2024/01/29 01:10:27;;;;;;;;;;;5.00;99.90;;;;;;5038802;28;19917;-63
2024/01/29 01:12:53;;;;;;;;;;;5.00;99.90;;;;;;5035652;28;20003;-64
2024/01/29 01:15:19;;;;;;;;;;;5.00;99.90;;;;;;5020435;28;20022;-64
2024/01/29 01:17:45;;;;;;;;;;;5.00;99.90;;;;;;5039141;28;19916;-64
2024/01/29 01:20:11;;;;;;;;;;;5.00;99.90;;;;;;5046610;28;19961;-61
2024/01/29 01:22:36;;;;;;;;;;;5.00;99.90;;;;;;5046922;28;19924;-61
2024/01/29 01:25:02;;;;;;;;;;;5.00;99.90;;;;;;5037646;28;20241;-63
2024/01/29 01:27:28;;;;;;;;;;;4.90;99.90;;;;;;5040894;28;19920;-64
2024/01/29 01:29:53;;;;;;;;;;;4.90;99.90;;;;;;5038830;28;20452;-62
2024/01/29 01:32:19;;;;;;;;;;;4.90;99.90;;;;;;5040869;28;20373;-62
2024/01/29 01:34:44;;;;;;;;;;;4.90;99.90;;;;;;5040439;28;20416;-63
2024/01/29 01:37:10;;;;;;;;;;;4.80;99.90;;;;;;5017922;28;20434;-64
2024/01/29 01:39:35;;;;;;;;;;;4.80;99.90;;;;;;5040003;28;19920;-63
2024/01/29 01:42:01;;;;;;;;;;;4.80;99.90;;;;;;5037918;28;19928;-62
2024/01/29 01:44:27;;;;;;;;;;;4.80;99.90;;;;;;5038507;28;20375;-61
2024/01/29 01:46:52;;;;;;;;;;;4.70;99.90;;;;;;5040593;28;19916;-63
2024/01/29 01:49:18;;;;;;;;;;;4.70;99.90;;;;;;5035912;28;20382;-64
2024/01/29 01:51:44;;;;;;;;;;;4.70;99.90;;;;;;5039763;28;19918;-61
2024/01/29 01:54:11;;;;;;;;;;;4.70;99.90;;;;;;5037820;28;20316;-63
2024/01/29 01:56:37;;;;;;;;;;;4.70;99.90;;;;;;5037967;28;19987;-62
2024/01/29 01:59:03;;;;;;;;;;;4.70;99.90;;;;;;5041047;28;19916;-61
2024/01/29 02:01:30;;;;;;;;;;;4.60;99.90;;;;;;5042541;28;19924;-63
2024/01/29 02:03:55;;;;;;;;;;;4.70;99.90;;;;;;5038981;28;20042;-64
2024/01/29 02:06:21;;;;;;;;;;;4.60;99.90;;;;;;5036103;28;20019;-63
2024/01/29 02:08:47;;;;;;;;;;;4.60;99.90;;;;;;5016307;28;19924;-61
2024/01/29 02:11:12;;;;;;;;;;;4.60;99.90;;;;;;5030726;28;19923;-63
2024/01/29 02:13:38;;;;;;;;;;;4.60;99.90;;;;;;5043244;28;19931;-62
2024/01/29 02:16:03;;;;;;;;;;;4.60;99.90;;;;;;5043986;28;19925;-63
2024/01/29 02:18:29;;;;;;;;;;;4.60;99.90;;;;;;5038359;28;19920;-63
2024/01/29 02:20:55;;;;;;;;;;;4.60;99.90;;;;;;5037820;28;20556;-64
2024/01/29 02:23:21;;;;;;;;;;;4.60;99.90;;;;;;5035425;28;19921;-63
2024/01/29 02:25:46;;;;;;;;;;;4.60;99.90;;;;;;5038592;28;19990;-63
2024/01/29 02:28:12;;;;;;;;;;;4.60;99.90;;;;;;5019384;28;20034;-64
2024/01/29 02:30:38;;;;;;;;;;;4.50;99.90;;;;;;5034831;28;19920;-59
2024/01/29 02:33:03;;;;;;;;;;;4.50;99.90;;;;;;5039114;28;20344;-63
2024/01/29 02:35:29;;;;;;;;;;;4.50;99.90;;;;;;5046767;28;20427;-64
2024/01/29 02:37:54;;;;;;;;;;;4.50;99.90;;;;;;5036070;28;20398;-62
2024/01/29 02:40:20;;;;;;;;;;;4.50;99.90;;;;;;5037626;28;19924;-61
2024/01/29 02:42:45;;;;;;;;;;;4.50;99.90;;;;;;5036947;28;19920;-64
2024/01/29 02:45:11;;;;;;;;;;;4.50;99.90;;;;;;5036380;28;19921;-62
2024/01/29 02:47:36;;;;;;;;;;;4.40;99.90;;;;;;5038351;28;19932;-63
2024/01/29 02:50:02;;;;;;;;;;;4.40;99.90;;;;;;5021776;28;20423;-63
2024/01/29 02:52:28;;;;;;;;;;;4.40;99.90;;;;;;5038124;28;19971;-63
2024/01/29 02:54:53;;;;;;;;;;;4.40;99.90;;;;;;5022600;28;19979;-64
2024/01/29 02:57:23;;;;;;;;;;;4.50;99.90;;;;;;5016122;28;20824;-61
2024/01/29 02:59:49;;;;;;;;;;;4.40;99.90;;;;;;5038585;28;19916;-63
2024/01/29 03:02:15;;;;;;;;;;;4.40;99.90;;;;;;5045821;28;19931;-62
2024/01/29 03:04:40;;;;;;;;;;;4.40;99.90;;;;;;5036179;28;20391;-63
2024/01/29 03:07:06;;;;;;;;;;;4.40;99.90;;;;;;5036931;28;19924;-61
2024/01/29 03:09:31;;;;;;;;;;;4.30;99.90;;;;;;5020532;28;19917;-64
2024/01/29 03:11:57;;;;;;;;;;;4.30;99.90;;;;;;5039524;28;19935;-63
2024/01/29 03:14:22;;;;;;;;;;;4.30;99.90;;;;;;5041364;28;19964;-62
2024/01/29 03:16:51;;;;;;;;;;;4.30;99.90;;;;;;5043489;28;19929;-62
2024/01/29 03:19:16;;;;;;;;;;;4.30;99.90;;;;;;5039821;28;19916;-62
2024/01/29 03:21:42;;;;;;;;;;;4.30;99.90;;;;;;5037583;28;19956;-63
2024/01/29 03:24:08;;;;;;;;;;;4.40;99.90;;;;;;5036240;28;20269;-61
2024/01/29 03:26:33;;;;;;;;;;;4.40;99.90;;;;;;5033795;28;20433;-63
2024/01/29 03:28:59;;;;;;;;;;;4.40;99.90;;;;;;5037445;28;20330;-64
2024/01/29 03:31:25;;;;;;;;;;;4.30;99.90;;;;;;5035558;28;19925;-63
2024/01/29 03:33:50;;;;;;;;;;;4.30;99.90;;;;;;5033014;28;19925;-64
2024/01/29 03:36:16;;;;;;;;;;;4.30;99.90;;;;;;5037276;28;19924;-62
2024/01/29 03:38:41;;;;;;;;;;;4.30;99.90;;;;;;5039898;28;20462;-62
2024/01/29 03:41:07;;;;;;;;;;;4.40;99.90;;;;;;5039404;28;20284;-63
2024/01/29 03:43:33;;;;;;;;;;;4.30;99.90;;;;;;5017179;28;19926;-64
2024/01/29 03:45:58;;;;;;;;;;;4.30;99.90;;;;;;5036574;28;19924;-64
2024/01/29 03:48:24;;;;;;;;;;;4.30;99.90;;;;;;5034346;28;19921;-62
2024/01/29 03:50:49;;;;;;;;;;;4.20;99.90;;;;;;5040198;28;19916;-62
2024/01/29 03:53:15;;;;;;;;;;;4.20;99.90;;;;;;5046349;28;19920;-61
2024/01/29 03:55:41;;;;;;;;;;;4.20;99.90;;;;;;5040355;28;19921;-61
2024/01/29 03:58:07;;;;;;;;;;;4.10;99.90;;;;;;5043927;28;19943;-61
2024/01/29 04:00:32;;;;;;;;;;;4.10;99.90;;;;;;5049664;28;20457;-63
2024/01/29 04:02:58;;;;;;;;;;;4.00;99.90;;;;;;5042713;28;19933;-64
2024/01/29 04:05:24;;;;;;;;;;;4.00;99.90;;;;;;5041857;28;19927;-64
2024/01/29 04:07:50;;;;;;;;;;;4.10;99.90;;;;;;5045039;28;19952;-64
2024/01/29 04:10:15;;;;;;;;;;;4.00;99.90;;;;;;5024058;28;20574;-64
2024/01/29 04:12:41;;;;;;;;;;;3.90;99.90;;;;;;5038987;28;20305;-64
2024/01/29 04:15:07;;;;;;;;;;;4.00;99.90;;;;;;5041682;28;20401;-61
2024/01/29 04:17:33;;;;;;;;;;;3.90;99.90;;;;;;5045589;28;19916;-62
2024/01/29 04:19:59;;;;;;;;;;;3.80;99.90;;;;;;5045990;28;20272;-63
2024/01/29 04:22:25;;;;;;;;;;;3.80;99.90;;;;;;5045154;28;19931;-63
2024/01/29 04:24:51;;;;;;;;;;;3.80;99.90;;;;;;5045153;28;19974;-63
2024/01/29 04:27:16;;;;;;;;;;;3.80;99.90;;;;;;5042727;28;20024;-63
2024/01/29 04:29:42;;;;;;;;;;;3.80;99.90;;;;;;5047781;28;19955;-63
2024/01/29 04:32:07;;;;;;;;;;;3.80;99.90;;;;;;5041759;28;19929;-63
2024/01/29 04:34:33;;;;;;;;;;;3.80;99.90;;;;;;5042274;28;19921;-63
2024/01/29 04:36:58;;;;;;;;;;;3.80;99.90;;;;;;5039960;28;19928;-63
2024/01/29 04:39:24;;;;;;;;;;;3.80;99.90;;;;;;5046659;28;20459;-62
2024/01/29 04:41:51;;;;;;;;;;;3.90;99.90;;;;;;5047769;28;20556;-64
2024/01/29 04:44:16;;;;;;;;;;;3.80;99.90;;;;;;5044465;28;19921;-61
2024/01/29 04:46:42;;;;;;;;;;;3.80;99.90;;;;;;5025471;28;19978;-63
2024/01/29 04:49:07;;;;;;;;;;;3.80;99.90;;;;;;5042345;28;19970;-61
2024/01/29 04:51:33;;;;;;;;;;;3.80;99.90;;;;;;5038105;28;20366;-63
2024/01/29 04:53:58;;;;;;;;;;;3.80;99.90;;;;;;5043676;28;19931;-63
2024/01/29 04:56:24;;;;;;;;;;;3.80;99.90;;;;;;5030428;28;19920;-64
2024/01/29 04:58:50;;;;;;;;;;;3.90;99.90;;;;;;5043762;28;20417;-64
2024/01/29 05:01:16;;;;;;;;;;;3.80;99.90;;;;;;5049894;28;20019;-63
2024/01/29 05:03:41;;;;;;;;;;;3.80;99.90;;;;;;5046596;28;20353;-63
2024/01/29 05:06:07;;;;;;;;;;;3.80;99.90;;;;;;5040198;28;19923;-63
2024/01/29 05:08:32;;;;;;;;;;;3.80;99.90;;;;;;5042335;28;19967;-62
2024/01/29 05:10:58;;;;;;;;;;;3.80;99.90;;;;;;5044585;28;19921;-63
2024/01/29 05:13:23;;;;;;;;;;;3.80;99.90;;;;;;5047971;28;19916;-63
2024/01/29 05:15:49;;;;;;;;;;;3.80;99.90;;;;;;5051501;28;20528;-64
2024/01/29 05:18:14;;;;;;;;;;;3.80;99.90;;;;;;5043645;28;19920;-62
2024/01/29 05:20:40;;;;;;;;;;;3.80;99.90;;;;;;5047425;28;19912;-62
2024/01/29 05:23:06;;;;;;;;;;;3.80;99.90;;;;;;5043853;28;19929;-62
2024/01/29 05:25:31;;;;;;;;;;;3.80;99.90;;;;;;5037654;28;19921;-63
2024/01/29 05:27:57;;;;;;;;;;;3.80;99.90;;;;;;5039618;28;20061;-64
2024/01/29 05:30:23;;;;;;;;;;;3.80;99.90;;;;;;5038259;28;19925;-61
2024/01/29 05:32:48;;;;;;;;;;;3.80;99.90;;;;;;5040375;28;20368;-62
2024/01/29 05:35:14;;;;;;;;;;;3.70;99.90;;;;;;5038504;28;20003;-62
2024/01/29 05:37:39;;;;;;;;;;;3.70;99.90;;;;;;5032840;28;20028;-64
2024/01/29 05:40:05;;;;;;;;;;;3.60;99.90;;;;;;5038251;28;20027;-64
2024/01/29 05:42:31;;;;;;;;;;;3.60;99.90;;;;;;5044348;28;20369;-62
2024/01/29 05:44:56;;;;;;;;;;;3.60;99.90;;;;;;5042779;28;19940;-63
2024/01/29 05:47:23;;;;;;;;;;;3.60;99.90;;;;;;5038983;28;19921;-61
2024/01/29 05:49:48;;;;;;;;;;;3.50;99.90;;;;;;5037638;28;19963;-64
2024/01/29 05:52:14;;;;;;;;;;;3.50;99.90;;;;;;5040013;28;21387;-62
2024/01/29 05:54:39;;;;;;;;;;;3.60;99.90;;;;;;5042239;28;19924;-63
2024/01/29 05:57:09;;;;;;;;;;;3.60;99.90;;;;;;5041220;28;20905;-61
2024/01/29 05:59:34;;;;;;;;;;;3.60;99.90;;;;;;5040822;28;20363;-64
2024/01/29 06:02:00;;;;;;;;;;;3.60;99.90;;;;;;5042501;28;19927;-63
2024/01/29 06:04:25;;;;;;;;;;;3.60;99.90;;;;;;5033486;28;20361;-62
2024/01/29 06:06:51;;;;;;;;;;;3.60;99.90;;;;;;5031488;28;19925;-63
2024/01/29 06:09:17;;;;;;;;;;;3.70;99.90;;;;;;5038388;28;19920;-61
2024/01/29 06:11:42;;;;;;;;;;;3.70;99.90;;;;;;5038112;28;20438;-61
2024/01/29 06:14:08;;;;;;;;;;;3.70;99.90;;;;;;5035338;28;19931;-63
2024/01/29 06:16:33;;;;;;;;;;;3.70;99.90;;;;;;5021295;28;19951;-63
2024/01/29 06:18:59;;;;;;;;;;;3.70;99.90;;;;;;5035965;28;19921;-63
2024/01/29 06:21:24;;;;;;;;;;;3.70;99.90;;;;;;5037755;28;19920;-62
2024/01/29 06:23:50;;;;;;;;;;;3.80;99.90;;;;;;5047946;28;20011;-64
2024/01/29 06:26:15;;;;;;;;;;;3.80;99.90;;;;;;5031774;28;19925;-62
2024/01/29 06:28:41;;;;;;;;;;;3.80;99.90;;;;;;5017006;28;19917;-63
2024/01/29 06:31:07;;;;;;;;;;;3.80;99.90;;;;;;5037473;28;19927;-62
2024/01/29 06:33:35;;;;;;;;;;;3.80;99.90;;;;;;5035886;28;21191;-63
2024/01/29 06:36:00;;;;;;;;;;;3.80;99.90;;;;;;5035679;28;20287;-61
2024/01/29 06:38:26;;;;;;;;;;;3.80;99.90;;;;;;5036125;28;19967;-63
2024/01/29 06:40:51;;;;;;;;;;;3.80;99.90;;;;;;5021919;28;19964;-63
2024/01/29 06:43:17;;;;;;;;;;;3.80;99.90;;;;;;5038210;28;19970;-63
2024/01/29 06:45:42;;;;;;;;;;;3.80;99.90;;;;;;5006306;28;20035;-64
2024/01/29 06:48:08;;;;;;;;;;;3.70;99.90;;;;;;5041379;28;19929;-63
2024/01/29 06:50:34;;;;;;;;;;;3.70;99.90;;;;;;5056634;28;19927;-63
2024/01/29 06:52:59;;;;;;;;;;;3.70;99.90;;;;;;5049124;28;19924;-64
2024/01/29 06:55:25;;;;;;;;;;;3.70;99.90;;;;;;5049841;28;20461;-62
2024/01/29 06:57:50;;;;;;;;;;;3.70;99.90;;;;;;5042767;28;20485;-62
2024/01/29 07:00:16;;;;;;;;;;;3.70;99.90;;;;;;5036131;28;20264;-62
2024/01/29 07:02:42;;;;;;;;;;;3.70;99.90;;;;;;5049699;28;19928;-62
2024/01/29 07:05:07;;;;;;;;;;;3.60;99.90;;;;;;5028766;28;19929;-62
2024/01/29 07:07:33;;;;;;;;;;;3.60;99.90;;;;;;5050327;28;20379;-61
2024/01/29 07:09:59;;;;;;;;;;;3.60;99.90;;;;;;5049719;28;19948;-62
2024/01/29 07:12:24;;;;;;;;;;;3.50;99.90;;;;;;5033944;28;19917;-62
2024/01/29 07:14:52;;;;;;;;;;;3.60;99.90;;;;;;5050703;28;20413;-62
2024/01/29 07:17:17;;;;;;;;;;;3.60;99.90;;;;;;5048975;28;20283;-62
2024/01/29 07:19:44;;;;;;;;;;;3.60;99.90;;;;;;5056369;28;19917;-62
2024/01/29 07:22:14;;;;;;;;;;;3.60;99.90;;;;;;5052310;28;19916;-62
2024/01/29 07:24:40;;;;;;;;;;;3.60;99.90;;;;;;5053156;28;19921;-61
2024/01/29 07:27:05;;;;;;;;;;;3.70;99.90;;;;;;5057952;28;19931;-61
2024/01/29 07:29:31;;;;;;;;;;;3.70;99.90;;;;;;5054689;28;19920;-62
2024/01/29 07:31:58;;;;;;;;;;;3.70;99.90;;;;;;5035228;28;20339;-62
2024/01/29 07:34:23;;;;;;;;;;;3.80;99.90;;;;;;5054267;28;20260;-62
2024/01/29 07:36:49;;;;;;;;;;;3.80;99.90;;;;;;5054969;28;19924;-62
2024/01/29 07:39:15;;;;;;;;;;;3.80;99.90;;;;;;5058135;28;19913;-62
2024/01/29 07:41:40;;;;;;;;;;;3.80;99.90;;;;;;5055664;28;19944;-62
2024/01/29 07:44:06;;;;;;;;;;;3.90;99.90;;;;;;5036114;28;19962;-62
2024/01/29 07:46:31;;;;;;;;;;;3.80;99.90;;;;;;5053613;28;20715;-62
2024/01/29 07:48:59;;;;;;;;;;;3.80;99.90;;;;;;5050961;28;20184;-62
2024/01/29 07:51:25;;;;;;;;;;;3.80;99.90;;;;;;5057370;28;19916;-62
2024/01/29 07:53:50;;;;;;;;;;;3.80;99.90;;;;;;5057108;28;19920;-62
2024/01/29 07:56:16;;;;;;;;;;;3.90;99.90;;;;;;5051438;28;20026;-62
2024/01/29 07:58:41;;;;;;;;;;;3.90;99.90;;;;;;5051529;28;20295;-61
2024/01/29 08:01:07;;;;;;;;;;;3.90;99.90;;;;;;5052640;28;19932;-61
2024/01/29 08:03:32;;;;;;;;;;;3.90;99.90;;;;;;5056057;28;20333;-60
2024/01/29 08:05:58;;;;;;;;;;;3.90;99.90;;;;;;5059210;28;19920;-62
2024/01/29 08:08:23;;;;;;;;;;;4.00;99.90;;;;;;5053196;28;20351;-62
2024/01/29 08:10:49;;;;;;;;;;;4.00;99.90;;;;;;5055519;28;19921;-62
2024/01/29 08:13:15;;;;;;;;;;;4.00;99.90;;;;;;5055713;28;19955;-61
2024/01/29 08:15:40;;;;;;;;;;;4.00;99.90;;;;;;5053990;28;19921;-62
2024/01/29 08:18:06;;;;;;;;;;;4.10;99.90;;;;;;5056100;28;20372;-61
2024/01/29 08:20:31;;;;;;;;;;;4.10;99.90;;;;;;5054522;28;20268;-62
2024/01/29 08:22:57;;;;;;;;;;;4.20;99.90;;;;;;5053726;28;19925;-62
2024/01/29 08:25:22;;;;;;;;;;;4.10;99.90;;;;;;5053611;28;19931;-62
2024/01/29 08:27:48;;;;;;;;;;;4.20;99.90;;;;;;5056678;28;20184;-62
2024/01/29 08:30:14;;;;;;;;;;;4.30;99.90;;;;;;5036253;28;20515;-62
2024/01/29 08:32:41;;;;;;;;;;;4.30;99.90;;;;;;5053681;28;20430;-62
2024/01/29 08:35:07;;;;;;;;;;;4.40;99.90;;;;;;5052970;28;20279;-61
2024/01/29 08:37:32;;;;;;;;;;;4.40;99.90;;;;;;5052833;28;19921;-61
2024/01/29 08:39:58;;;;;;;;;;;4.40;99.90;;;;;;5058369;28;20383;-61
2024/01/29 08:42:23;;;;;;;;;;;4.50;99.90;;;;;;5061922;28;20397;-62
2024/01/29 08:44:49;;;;;;;;;;;4.50;99.90;;;;;;5055818;28;20414;-61
2024/01/29 08:47:15;;;;;;;;;;;4.50;99.90;;;;;;5058696;28;20298;-62
2024/01/29 08:49:40;;;;;;;;;;;4.50;99.90;;;;;;5056029;28;20344;-62
2024/01/29 08:52:06;;;;;;;;;;;4.60;99.90;;;;;;5058420;28;19952;-62
2024/01/29 08:54:31;;;;;;;;;;;4.60;99.90;;;;;;5044428;28;20244;-62
2024/01/29 08:56:57;;;;;;;;;;;4.60;99.90;;;;;;5058441;28;19920;-61
2024/01/29 08:59:23;;;;;;;;;;;4.70;99.90;;;;;;5055565;28;20314;-61
2024/01/29 09:01:48;;;;;;;;;;;4.70;99.90;;;;;;5058907;28;19927;-62
2024/01/29 09:04:14;;;;;;;;;;;4.70;99.90;;;;;;5056417;28;19924;-61
2024/01/29 09:06:39;;;;;;;;;;;4.70;99.90;;;;;;5057772;28;19933;-61
2024/01/29 09:09:05;;;;;;;;;;;4.80;99.90;;;;;;5060063;28;19925;-62
2024/01/29 09:11:30;;;;;;;;;;;4.80;99.90;;;;;;5058139;28;19916;-61
2024/01/29 09:13:56;;;;;;;;;;;4.80;99.90;;;;;;5057032;28;19920;-61
2024/01/29 09:16:21;;;;;;;;;;;4.90;99.90;;;;;;5030909;28;20370;-61
2024/01/29 09:18:47;;;;;;;;;;;4.90;99.90;;;;;;5059264;28;19921;-60
2024/01/29 09:21:12;;;;;;;;;;;5.00;99.90;;;;;;5059544;28;19920;-61
2024/01/29 09:23:38;;;;;;;;;;;5.00;99.90;;;;;;5056786;28;19932;-62
2024/01/29 09:26:05;;;;;;;;;;;5.00;99.90;;;;;;5058636;28;19928;-61
2024/01/29 09:28:31;;;;;;;;;;;5.10;99.90;;;;;;5059195;28;19952;-62
2024/01/29 09:30:56;;;;;;;;;;;5.10;99.90;;;;;;5056882;28;19983;-61
2024/01/29 09:33:22;;;;;;;;;;;5.10;99.90;;;;;;5061654;28;19917;-60
2024/01/29 09:35:48;;;;;;;;;;;5.20;99.90;;;;;;5057110;28;19916;-62
2024/01/29 09:38:14;;;;;;;;;;;5.20;99.90;;;;;;5055215;28;19921;-62
2024/01/29 09:40:43;;;;;;;;;;;5.30;99.90;;;;;;5054827;28;19932;-62
2024/01/29 09:43:10;;;;;;;;;;;5.40;99.90;;;;;;5056658;28;20282;-61
2024/01/29 09:45:36;;;;;;;;;;;5.40;99.90;;;;;;5061455;28;19960;-61
2024/01/29 09:48:02;;;;;;;;;;;5.50;99.90;;;;;;5058949;28;20373;-62
2024/01/29 09:50:28;;;;;;;;;;;5.50;99.90;;;;;;5056441;28;19927;-61
2024/01/29 09:52:55;;;;;;;;;;;5.60;99.90;;;;;;5056814;28;19916;-61
2024/01/29 09:55:22;;;;;;;;;;;5.70;99.90;;;;;;5056494;28;19917;-62
2024/01/29 09:57:48;;;;;;;;;;;5.70;99.90;;;;;;5058399;28;19919;-61
2024/01/29 10:00:13;;;;;;;;;;;5.80;99.90;;;;;;5056095;28;19917;-62
2024/01/29 10:02:41;;;;;;;;;;;5.80;99.90;;;;;;5056551;28;19944;-62
2024/01/29 10:05:08;;;;;;;;;;;5.90;99.90;;;;;;5057571;28;20270;-62
2024/01/29 10:07:34;;;;;;;;;;;5.90;99.90;;;;;;5055317;28;19921;-62
2024/01/29 10:10:06;;;;;;;;;;;5.90;99.90;;;;;;5059499;28;20291;-61
2024/01/29 10:12:31;;;;;;;;;;;5.90;99.90;;;;;;5060436;28;19916;-61
2024/01/29 10:14:57;;;;;;;;;;;6.00;99.90;;;;;;5053076;28;19921;-60
2024/01/29 10:17:25;;;;;;;;;;;6.10;99.90;;;;;;5054025;28;20279;-61
2024/01/29 10:19:51;;;;;;;;;;;6.20;99.90;;;;;;5055126;28;19923;-61
2024/01/29 10:22:17;;;;;;;;;;;6.20;99.90;;;;;;5036229;28;20632;-61
2024/01/29 10:24:43;;;;;;;;;;;6.30;99.90;;;;;;5059945;28;19916;-61
2024/01/29 10:27:09;;;;;;;;;;;6.30;99.90;;;;;;5058876;28;19927;-61
2024/01/29 10:29:47;;;;;;;;;;;6.30;99.90;;;;;;5052272;28;19932;-62
2024/01/29 10:32:13;;;;;;;;;;;6.40;99.90;;;;;;5053645;28;19916;-61
2024/01/29 10:34:38;;;;;;;;;;;6.40;99.90;;;;;;5056330;28;19947;-62
2024/01/29 10:37:05;;;;;;;;;;;6.50;99.90;;;;;;5057454;28;19974;-62
2024/01/29 10:39:31;;;;;;;;;;;6.50;99.90;;;;;;5058987;28;19923;-62
2024/01/29 10:41:56;;;;;;;;;;;6.60;99.90;;;;;;5053929;28;19916;-61
2024/01/29 10:44:24;;;;;;;;;;;6.60;99.90;;;;;;5053942;28;19917;-62
2024/01/29 10:46:53;;;;;;;;;;;6.60;99.90;;;;;;5051519;28;20329;-61
2024/01/29 10:49:19;;;;;;;;;;;6.70;99.90;;;;;;5055511;28;19916;-62
2024/01/29 10:51:45;;;;;;;;;;;6.70;99.90;;;;;;5061575;28;19916;-61
2024/01/29 10:54:12;;;;;;;;;;;6.70;99.90;;;;;;5056317;28;20047;-61
2024/01/29 10:56:37;;;;;;;;;;;6.80;99.90;;;;;;5038539;28;19969;-61
2024/01/29 10:59:03;;;;;;;;;;;6.80;99.90;;;;;;5054002;28;19916;-61
2024/01/29 11:01:30;;;;;;;;;;;6.90;99.90;;;;;;5056488;28;20449;-61
2024/01/29 11:03:57;;;;;;;;;;;6.90;99.90;;;;;;5059107;28;20370;-61
2024/01/29 11:06:26;;;;;;;;;;;6.90;99.90;;;;;;5055831;28;20035;-61
2024/01/29 11:08:57;;;;;;;;;;;6.90;99.90;;;;;;5053571;28;20007;-61
2024/01/29 11:11:23;;;;;;;;;;;7.00;99.90;;;;;;5055324;28;19998;-62
2024/01/29 11:13:49;;;;;;;;;;;7.00;99.90;;;;;;5037566;28;20294;-61
2024/01/29 11:16:15;;;;;;;;;;;7.00;99.90;;;;;;5037851;28;19921;-62
2024/01/29 11:18:42;;;;;;;;;;;7.00;99.90;;;;;;5058621;28;19923;-62
2024/01/29 11:21:14;;;;;;;;;;;7.10;99.90;;;;;;5053682;28;19917;-61
2024/01/29 11:23:43;;;;;;;;;;;7.10;99.90;;;;;;5051635;28;19924;-60
2024/01/29 11:26:16;;;;;;;;;;;7.10;99.90;;;;;;5053159;28;19917;-61
2024/01/29 11:28:42;;;;;;;;;;;7.10;99.90;;;;;;5053666;28;20033;-62
2024/01/29 11:31:12;;;;;;;;;;;7.20;99.90;;;;;;5054126;28;20503;-61
2024/01/29 11:33:37;;;;;;;;;;;7.20;99.90;;;;;;5056877;28;19970;-62
2024/01/29 11:36:07;;;;;;;;;;;7.20;99.90;;;;;;5055755;28;19924;-61
2024/01/29 11:38:33;;;;;;;;;;;7.20;99.90;;;;;;5052346;28;19955;-61
2024/01/29 11:41:02;;;;;;;;;;;7.20;99.90;;;;;;5057218;28;19951;-61
2024/01/29 11:43:27;;;;;;;;;;;7.20;99.90;;;;;;5055347;28;20892;-61
2024/01/29 11:45:53;;;;;;;;;;;7.30;99.90;;;;;;5058344;28;20505;-61
2024/01/29 11:48:26;;;;;;;;;;;7.30;99.90;;;;;;5054763;28;19916;-62
2024/01/29 11:50:52;;;;;;;;;;;7.40;99.90;;;;;;5053616;28;19970;-61
2024/01/29 11:53:19;;;;;;;;;;;7.30;99.90;;;;;;5053190;28;19920;-62
2024/01/29 11:55:48;;;;;;;;;;;7.40;99.90;;;;;;5055216;28;20001;-61
2024/01/29 11:58:15;;;;;;;;;;;7.50;99.90;;;;;;5058499;28;19924;-61
2024/01/29 12:00:40;;;;;;;;;;;7.50;99.90;;;;;;5055717;28;19916;-61
2024/01/29 12:03:07;;;;;;;;;;;7.60;99.90;;;;;;5037433;28;19993;-61
2024/01/29 12:05:32;;;;;;;;;;;7.60;99.90;;;;;;5055784;28;19920;-62
2024/01/29 12:07:58;;;;;;;;;;;7.70;99.90;;;;;;5036725;28;19920;-61
2024/01/29 12:10:23;;;;;;;;;;;7.70;99.90;;;;;;5058076;28;19927;-61
2024/01/29 12:12:49;;;;;;;;;;;7.80;99.90;;;;;;5060980;28;19923;-61
2024/01/29 12:15:15;;;;;;;;;;;7.80;99.90;;;;;;5057654;28;19927;-61
2024/01/29 12:17:42;;;;;;;;;;;7.90;99.90;;;;;;5038249;28;19912;-62
2024/01/29 12:20:10;;;;;;;;;;;7.90;99.90;;;;;;5060732;28;19919;-61
2024/01/29 12:22:36;;;;;;;;;;;7.80;99.90;;;;;;5057727;28;19921;-61
2024/01/29 12:25:01;;;;;;;;;;;7.90;99.90;;;;;;5062978;28;19913;-62
2024/01/29 12:27:27;;;;;;;;;;;7.90;99.90;;;;;;5058986;28;19920;-61
2024/01/29 12:29:54;;;;;;;;;;;7.90;99.90;;;;;;5055268;28;19947;-62
2024/01/29 12:32:20;;;;;;;;;;;7.90;99.90;;;;;;5039080;28;20366;-61
2024/01/29 12:34:47;;;;;;;;;;;7.90;99.90;;;;;;5056112;28;20310;-61
2024/01/29 12:37:19;;;;;;;;;;;7.90;99.90;;;;;;5061513;28;19928;-61
2024/01/29 12:39:50;;;;;;;;;;;7.90;99.90;;;;;;5061829;28;19924;-61
2024/01/29 12:42:16;;;;;;;;;;;7.90;99.90;;;;;;5058326;28;19920;-61
2024/01/29 12:44:41;;;;;;;;;;;7.90;99.90;;;;;;5056160;28;20420;-61
2024/01/29 12:47:13;;;;;;;;;;;7.90;99.90;;;;;;5057406;28;20393;-62
2024/01/29 12:49:39;;;;;;;;;;;7.90;99.90;;;;;;5057600;28;19917;-61
2024/01/29 12:52:04;;;;;;;;;;;7.90;99.90;;;;;;5062971;28;19923;-61
2024/01/29 12:54:30;;;;;;;;;;;7.90;99.90;;;;;;5042272;28;19962;-60
2024/01/29 12:56:56;;;;;;;;;;;7.90;99.90;;;;;;5057407;28;19994;-61
2024/01/29 12:59:21;;;;;;;;;;;7.90;99.90;;;;;;5057401;28;19920;-62
2024/01/29 13:01:47;;;;;;;;;;;7.90;99.90;;;;;;5055441;28;20382;-61
2024/01/29 13:04:12;;;;;;;;;;;7.80;99.90;;;;;;5053516;28;20434;-61
2024/01/29 13:06:38;;;;;;;;;;;7.90;99.90;;;;;;5055584;28;19916;-61
2024/01/29 13:09:03;;;;;;;;;;;7.90;99.90;;;;;;5053442;28;20537;-62
2024/01/29 13:11:29;;;;;;;;;;;7.90;99.90;;;;;;5059416;28;20275;-61
2024/01/29 13:13:55;;;;;;;;;;;7.90;99.90;;;;;;5056913;28;19916;-62
2024/01/29 13:16:20;;;;;;;;;;;7.90;99.90;;;;;;5061200;28;20298;-62
2024/01/29 13:18:46;;;;;;;;;;;7.90;99.90;;;;;;5060338;28;20027;-61
2024/01/29 13:21:12;;;;;;;;;;;7.90;99.90;;;;;;5057888;28;19977;-61
2024/01/29 13:23:38;;;;;;;;;;;7.90;99.90;;;;;;5053677;28;19974;-61
2024/01/29 13:26:03;;;;;;;;;;;7.90;99.90;;;;;;5057882;28;20058;-61
2024/01/29 13:28:29;;;;;;;;;;;7.90;99.90;;;;;;5061534;28;19955;-61
2024/01/29 13:30:55;;;;;;;;;;;7.90;99.90;;;;;;5057550;28;19970;-61
2024/01/29 13:33:21;;;;;;;;;;;7.90;99.90;;;;;;5055108;28;19917;-61
2024/01/29 13:35:49;;;;;;;;;;;7.90;99.90;;;;;;5040636;28;19920;-61
2024/01/29 13:38:15;;;;;;;;;;;7.90;99.90;;;;;;5052417;28;20034;-61
2024/01/29 13:40:40;;;;;;;;;;;7.90;99.90;;;;;;5059125;28;20123;-61
2024/01/29 13:43:07;;;;;;;;;;;7.90;99.90;;;;;;5041488;28;19973;-62
2024/01/29 13:45:32;;;;;;;;;;;7.90;99.90;;;;;;5056240;28;20383;-61
2024/01/29 13:47:58;;;;;;;;;;;7.90;99.90;;;;;;5058753;28;19921;-61
2024/01/29 13:50:24;;;;;;;;;;;7.90;99.90;;;;;;5057459;28;20180;-61
2024/01/29 13:52:50;;;;;;;;;;;7.90;99.90;;;;;;5055653;28;19920;-61
2024/01/29 13:55:16;;;;;;;;;;;7.90;99.90;;;;;;5060381;28;19923;-61
2024/01/29 13:57:42;;;;;;;;;;;7.90;99.90;;;;;;5056142;28;19966;-62
2024/01/29 14:00:10;;;;;;;;;;;7.90;99.90;;;;;;5054173;28;19912;-61
2024/01/29 14:02:35;;;;;;;;;;;7.90;99.90;;;;;;5054357;28;19951;-61
2024/01/29 14:05:01;;;;;;;;;;;7.90;99.90;;;;;;5057392;28;19920;-62
2024/01/29 14:07:27;;;;;;;;;;;7.90;99.90;;;;;;5036020;28;19917;-62
2024/01/29 14:09:54;;;;;;;;;;;7.90;99.90;;;;;;5057595;28;19916;-61
2024/01/29 14:12:20;;;;;;;;;;;7.90;99.90;;;;;;5054919;28;19923;-61
2024/01/29 14:14:45;;;;;;;;;;;7.90;99.90;;;;;;5056024;28;19926;-61
2024/01/29 14:17:11;;;;;;;;;;;7.90;99.90;;;;;;5056813;28;20286;-61
2024/01/29 14:19:36;;;;;;;;;;;7.90;99.90;;;;;;5061557;28;20540;-62
2024/01/29 14:22:02;;;;;;;;;;;7.90;99.90;;;;;;5058463;28;19928;-62
2024/01/29 14:24:28;;;;;;;;;;;7.90;99.90;;;;;;5038056;28;19928;-61